createdAt,value
2023-04-14T00:01:42.871Z,2.00
2023-04-14T00:06:46.339Z,2.30
2023-04-14T00:11:51.283Z,2.40
2023-04-14T00:16:54.665Z,2.53
2023-04-14T00:21:58.017Z,2.90
2023-04-14T00:27:02.604Z,3.00
2023-04-14T00:32:06.106Z,3.37
2023-04-14T00:37:09.332Z,2.87
2023-04-14T00:42:13.921Z,2.90
2023-04-14T00:47:17.502Z,2.93
2023-04-14T00:52:22.878Z,2.90
2023-04-14T00:57:28.713Z,3.73
2023-04-14T01:02:32.190Z,2.70
2023-04-14T01:07:36.291Z,2.67
2023-04-14T01:13:09.753Z,2.33
2023-04-14T01:18:22.111Z,2.57
2023-04-14T01:23:28.145Z,2.77
2023-04-14T01:28:58.897Z,2.60
2023-04-14T01:34:12.274Z,2.47
2023-04-14T01:39:20.807Z,2.30
2023-04-14T01:44:27.760Z,2.20
2023-04-14T01:49:36.813Z,2.47
2023-04-14T01:54:42.635Z,2.17
2023-04-14T01:59:48.254Z,1.90
2023-04-14T02:04:53.898Z,2.77
2023-04-14T02:09:59.797Z,2.57
2023-04-14T02:15:03.688Z,2.03
2023-04-14T02:20:09.772Z,2.50
2023-04-14T02:25:13.452Z,1.97
2023-04-14T02:30:22.704Z,2.00
2023-04-14T02:35:30.183Z,1.80
2023-04-14T02:40:37.500Z,1.50
2023-04-14T02:45:43.495Z,1.70
2023-04-14T02:50:51.839Z,1.57
2023-04-14T02:55:55.095Z,1.63
2023-04-14T03:01:01.102Z,1.50
2023-04-14T03:06:07.424Z,1.60
2023-04-14T03:11:12.815Z,1.60
2023-04-14T03:16:16.953Z,1.60
2023-04-14T03:21:23.388Z,1.60
2023-04-14T03:26:28.108Z,2.43
2023-04-14T03:31:34.926Z,1.67
2023-04-14T03:36:41.365Z,1.90
2023-04-14T03:41:49.402Z,2.57
2023-04-14T03:46:54.690Z,2.13
2023-04-14T03:52:03.455Z,2.23
2023-04-14T03:57:09.612Z,2.40
2023-04-14T04:02:13.720Z,2.30
2023-04-14T04:07:20.674Z,2.17
2023-04-14T04:12:25.505Z,2.60
2023-04-14T04:17:33.018Z,2.70
2023-04-14T04:22:40.966Z,2.60
2023-04-14T04:27:44.368Z,2.60
2023-04-14T04:32:47.893Z,2.70
2023-04-14T04:37:53.592Z,2.90
2023-04-14T04:42:56.918Z,2.80
2023-04-14T04:48:00.199Z,2.73
2023-04-14T04:53:04.872Z,2.57
2023-04-14T04:58:08.123Z,2.53
2023-04-14T05:03:11.318Z,2.67
2023-04-14T05:08:15.949Z,3.17
2023-04-14T05:13:19.166Z,3.10
2023-04-14T05:18:22.442Z,3.13
2023-04-14T05:23:27.060Z,4.57
2023-04-14T05:28:30.498Z,12.70
2023-04-14T05:33:34.156Z,4.83
2023-04-14T05:38:41.143Z,4.87
2023-04-14T05:43:44.391Z,4.90
2023-04-14T05:48:47.545Z,5.10
2023-04-14T05:53:52.136Z,5.07
2023-04-14T05:58:55.941Z,6.07
2023-04-14T06:03:59.452Z,5.27
2023-04-14T06:09:04.406Z,6.80
2023-04-14T06:14:07.741Z,5.97
2023-04-14T06:19:11.443Z,6.73
2023-04-14T06:24:16.374Z,7.13
2023-04-14T06:29:19.620Z,6.70
2023-04-14T06:34:22.860Z,6.23
2023-04-14T06:39:27.536Z,7.00
2023-04-14T06:44:30.737Z,6.10
2023-04-14T06:49:33.921Z,5.93
2023-04-14T06:54:38.512Z,6.97
2023-04-14T06:59:41.752Z,8.13
2023-04-14T07:04:45.136Z,7.23
2023-04-14T07:09:49.746Z,10.07
2023-04-14T07:14:52.997Z,8.63
2023-04-14T07:19:56.885Z,8.50
2023-04-14T07:25:01.694Z,7.53
2023-04-14T07:30:05.497Z,7.53
2023-04-14T07:35:11.029Z,7.70
2023-04-14T07:40:16.051Z,6.33
2023-04-14T07:45:19.448Z,5.80
2023-04-14T07:50:22.744Z,4.40
2023-04-14T07:55:27.687Z,5.20
2023-04-14T08:00:31.168Z,5.37
2023-04-14T08:05:34.469Z,8.07
2023-04-14T08:10:39.213Z,5.70
2023-04-14T08:15:42.579Z,6.37
2023-04-14T08:20:45.868Z,5.40
2023-04-14T08:25:50.637Z,5.60
2023-04-14T08:30:53.842Z,4.37
2023-04-14T08:35:59.776Z,4.70
2023-04-14T08:41:08.997Z,5.10
2023-04-14T08:46:12.798Z,5.53
2023-04-14T08:51:26.595Z,4.70
2023-04-14T08:56:35.230Z,4.50
2023-04-14T09:01:40.421Z,4.83
2023-04-14T09:06:43.661Z,4.10
2023-04-14T09:11:49.559Z,4.00
2023-04-14T09:16:55.013Z,4.10
2023-04-14T09:21:58.482Z,3.50
2023-04-14T09:27:05.498Z,1.73
2023-04-14T09:32:11.915Z,1.77
2023-04-14T09:37:15.180Z,2.10
2023-04-14T09:42:20.204Z,2.33
2023-04-14T09:47:24.825Z,2.50
2023-04-14T09:52:41.626Z,2.10
2023-04-14T09:57:48.340Z,2.23
2023-04-14T10:02:55.862Z,2.20
2023-04-14T10:08:03.847Z,1.70
2023-04-14T10:13:08.488Z,1.30
2023-04-14T10:18:11.813Z,1.70
2023-04-14T10:23:15.238Z,1.50
2023-04-14T10:28:20.045Z,1.50
2023-04-14T10:33:24.050Z,1.83
2023-04-14T10:38:39.768Z,2.60
2023-04-14T10:43:44.747Z,4.27
2023-04-14T10:48:50.239Z,2.60
2023-04-14T10:53:57.655Z,0.90
2023-04-14T10:59:04.271Z,1.40
2023-04-14T11:04:19.468Z,1.17
2023-04-14T11:09:37.325Z,1.57
2023-04-14T11:14:43.235Z,1.20
2023-04-14T11:19:47.064Z,1.40
2023-04-14T11:24:50.527Z,1.37
2023-04-14T11:29:56.147Z,0.97
2023-04-14T11:35:09.007Z,1.30
2023-04-14T11:40:14.042Z,1.57
2023-04-14T11:45:19.782Z,1.70
2023-04-14T11:50:23.390Z,2.07
2023-04-14T11:55:28.052Z,2.07
2023-04-14T12:00:32.644Z,1.60
2023-04-14T12:05:36.707Z,1.90
2023-04-14T12:10:41.864Z,2.13
2023-04-14T12:15:46.775Z,1.27
2023-04-14T12:20:54.344Z,3.10
2023-04-14T12:25:57.668Z,3.03
2023-04-14T12:31:05.282Z,1.80
2023-04-14T12:36:10.012Z,1.40
2023-04-14T12:41:23.237Z,1.40
2023-04-14T12:46:28.201Z,1.40
2023-04-14T12:51:39.912Z,1.37
2023-04-14T12:56:43.715Z,1.30
2023-04-14T13:01:48.962Z,2.00
2023-04-14T13:06:52.715Z,1.50
2023-04-14T13:11:57.685Z,2.00
2023-04-14T13:17:02.820Z,1.73
2023-04-14T13:22:06.147Z,1.00
2023-04-14T13:27:09.522Z,0.93
2023-04-14T13:32:14.309Z,0.80
2023-04-14T13:37:18.101Z,0.80
2023-04-14T13:42:21.319Z,1.10
2023-04-14T13:47:27.156Z,2.60
2023-04-14T13:52:30.695Z,1.30
2023-04-14T13:57:33.989Z,1.13
2023-04-14T14:02:39.861Z,0.70
2023-04-14T14:07:43.362Z,0.63
2023-04-14T14:12:46.644Z,0.87
2023-04-14T14:17:53.223Z,1.07
2023-04-14T14:22:56.622Z,1.00
2023-04-14T14:27:59.917Z,1.10
2023-04-14T14:33:04.757Z,1.47
2023-04-14T14:38:08.005Z,1.37
2023-04-14T14:43:11.242Z,2.00
2023-04-14T14:48:16.790Z,1.47
2023-04-14T14:53:20.154Z,1.30
2023-04-14T14:58:24.508Z,1.20
2023-04-14T15:03:29.353Z,1.20
2023-04-14T15:08:32.728Z,0.87
2023-04-14T15:13:36.004Z,2.17
2023-04-14T15:18:40.863Z,0.70
2023-04-14T15:23:45.858Z,1.10
2023-04-14T15:28:49.364Z,2.80
2023-04-14T15:33:54.929Z,0.80
2023-04-14T15:38:58.656Z,2.10
2023-04-14T15:44:02.122Z,1.23
2023-04-14T15:49:06.892Z,1.17
2023-04-14T15:54:11.438Z,2.33
2023-04-14T15:59:15.011Z,1.20
2023-04-14T16:04:19.674Z,1.10
2023-04-14T16:09:23.099Z,1.10
2023-04-14T16:14:26.312Z,1.90
2023-04-14T16:19:31.161Z,1.80
2023-04-14T16:24:34.558Z,1.27
2023-04-14T16:29:37.864Z,2.00
2023-04-14T16:34:42.695Z,1.20
2023-04-14T16:39:46.406Z,1.10
2023-04-14T16:44:49.979Z,1.30
2023-04-14T16:49:55.054Z,2.33
2023-04-14T16:54:59.907Z,1.73
2023-04-14T17:00:03.337Z,1.27
2023-04-14T17:05:12.870Z,1.10
2023-04-14T17:10:17.279Z,1.30
2023-04-14T17:15:21.186Z,1.20
2023-04-14T17:20:26.612Z,1.87
2023-04-14T17:25:30.832Z,1.80
2023-04-14T17:30:35.094Z,1.50
2023-04-14T17:35:41.051Z,0.90
2023-04-14T17:40:44.338Z,0.93
2023-04-14T17:45:50.900Z,1.63
2023-04-14T17:50:56.320Z,1.03
2023-04-14T17:56:00.696Z,0.80
2023-04-14T18:01:05.376Z,1.23
2023-04-14T18:06:11.550Z,0.67
2023-04-14T18:11:16.121Z,1.37
2023-04-14T18:16:21.447Z,1.10
2023-04-14T18:21:28.157Z,0.70
2023-04-14T18:26:32.339Z,0.80
2023-04-14T18:31:40.100Z,1.00
2023-04-14T18:36:46.242Z,1.43
2023-04-14T18:41:51.038Z,1.40
2023-04-14T18:46:57.273Z,0.73
2023-04-14T18:52:04.254Z,1.07
2023-04-14T18:57:10.278Z,1.13
2023-04-14T19:02:15.234Z,0.93
2023-04-14T19:07:21.984Z,0.53
2023-04-14T19:12:28.427Z,1.03
2023-04-14T19:17:34.775Z,1.50
2023-04-14T19:22:39.977Z,1.50
2023-04-14T19:27:45.482Z,1.43
2023-04-14T19:32:52.965Z,0.97
2023-04-14T19:37:59.061Z,1.03
2023-04-14T19:43:05.083Z,2.17
2023-04-14T19:48:22.714Z,0.70
2023-04-14T19:53:30.337Z,1.10
2023-04-14T19:58:36.055Z,1.00
2023-04-14T20:03:40.885Z,2.23
2023-04-14T20:09:10.473Z,2.00
2023-04-14T20:14:14.283Z,1.40
2023-04-14T20:19:18.796Z,2.50
2023-04-14T20:24:23.962Z,1.97
2023-04-14T20:29:31.339Z,1.70
2023-04-14T20:34:35.812Z,1.20
2023-04-14T20:39:40.995Z,1.37
2023-04-14T20:44:44.948Z,1.40
2023-04-14T20:49:51.483Z,1.70
2023-04-14T20:54:56.585Z,1.77
2023-04-14T21:00:00.699Z,0.70
2023-04-14T21:05:04.570Z,1.23
2023-04-14T21:10:12.168Z,1.13
2023-04-14T21:15:39.927Z,1.40
2023-04-14T21:20:38.801Z,2.37
2023-04-14T21:25:43.461Z,2.60
2023-04-14T21:30:46.766Z,1.83
2023-04-14T21:35:50.061Z,1.60
2023-04-14T21:40:54.745Z,1.60
2023-04-14T21:45:58.371Z,1.73
2023-04-14T21:51:01.636Z,2.73
2023-04-14T21:56:10.165Z,1.33
2023-04-14T22:01:14.120Z,1.33
2023-04-14T22:06:19.279Z,1.33
2023-04-14T22:11:23.891Z,1.13
2023-04-14T22:16:28.809Z,2.10
2023-04-14T22:21:32.564Z,2.70
2023-04-14T22:26:37.213Z,2.93
2023-04-14T22:31:43.845Z,1.90
2023-04-14T22:36:47.173Z,2.23
2023-04-14T22:41:51.792Z,2.10
2023-04-14T22:46:55.017Z,1.87
2023-04-14T22:51:58.250Z,1.73
2023-04-14T22:57:03.008Z,2.33
2023-04-14T23:02:06.562Z,3.03
2023-04-14T23:07:09.958Z,2.93
2023-04-14T23:12:14.651Z,2.30
2023-04-14T23:17:17.990Z,2.80
2023-04-14T23:22:21.291Z,3.63
2023-04-14T23:27:25.884Z,3.17
2023-04-14T23:32:29.208Z,3.17
2023-04-14T23:37:32.502Z,3.00
2023-04-14T23:42:37.089Z,2.33
2023-04-14T23:47:40.533Z,2.73
2023-04-14T23:52:45.158Z,2.80
